createdAt,value
2019-01-20T00:00:20.323Z,1.5
2019-01-20T00:01:00.891Z,1.55
2019-01-20T00:01:41.455Z,1.53
2019-01-20T00:02:22.088Z,1.5
2019-01-20T00:03:02.661Z,1.53
2019-01-20T00:03:43.203Z,1.55
2019-01-20T00:04:23.762Z,1.45
2019-01-20T00:05:04.320Z,1.49
2019-01-20T00:05:44.914Z,1.49
2019-01-20T00:06:25.447Z,1.49
2019-01-20T00:07:05.987Z,1.5
2019-01-20T00:07:46.545Z,1.41
2019-01-20T00:08:27.140Z,1.48
2019-01-20T00:09:07.669Z,1.41
2019-01-20T00:09:48.214Z,1.42
2019-01-20T00:10:28.771Z,1.48
2019-01-20T00:11:16.350Z,1.41
2019-01-20T00:11:49.889Z,1.42
2019-01-20T00:12:30.524Z,1.48
2019-01-20T00:13:11.075Z,1.41
2019-01-20T00:13:51.637Z,1.42
2019-01-20T00:14:32.183Z,1.41
2019-01-20T00:15:12.783Z,1.45
2019-01-20T00:15:53.396Z,1.4
2019-01-20T00:16:34.011Z,1.45
2019-01-20T00:17:14.575Z,1.45
2019-01-20T00:17:55.130Z,1.41
2019-01-20T00:18:35.777Z,1.42
2019-01-20T00:19:16.320Z,1.41
2019-01-20T00:19:56.872Z,1.41
2019-01-20T00:20:37.431Z,1.42
2019-01-20T00:21:18.034Z,1.45
2019-01-20T00:21:58.587Z,1.49
2019-01-20T00:22:39.152Z,1.48
2019-01-20T00:23:19.741Z,1.42
2019-01-20T00:24:00.316Z,1.38
2019-01-20T00:24:40.829Z,1.41
2019-01-20T00:25:21.387Z,1.38
2019-01-20T00:26:01.945Z,1.38
2019-01-20T00:26:42.508Z,1.38
2019-01-20T00:27:23.101Z,1.42
2019-01-20T00:28:03.660Z,1.42
2019-01-20T00:28:44.220Z,1.4
2019-01-20T00:29:24.818Z,1.37
2019-01-20T00:30:05.380Z,1.31
2019-01-20T00:30:45.940Z,1.31
2019-01-20T00:31:26.493Z,1.26
2019-01-20T00:32:07.055Z,1.32
2019-01-20T00:32:47.632Z,1.28
2019-01-20T00:33:28.187Z,1.28
2019-01-20T00:34:08.806Z,1.28
2019-01-20T00:34:49.347Z,1.26
2019-01-20T00:35:29.905Z,1.31
2019-01-20T00:36:10.486Z,1.28
2019-01-20T00:36:51.035Z,1.34
2019-01-20T00:37:31.592Z,1.31
2019-01-20T00:38:12.141Z,1.28
2019-01-20T00:38:52.709Z,1.26
2019-01-20T00:39:33.269Z,1.32
2019-01-20T00:40:13.831Z,1.31
2019-01-20T00:40:54.391Z,1.34
2019-01-20T00:41:34.947Z,1.31
2019-01-20T00:42:15.510Z,1.3
2019-01-20T00:42:56.064Z,1.26
2019-01-20T00:43:36.621Z,1.31
2019-01-20T00:44:17.176Z,1.34
2019-01-20T00:45:02.522Z,1.26
2019-01-20T00:45:38.461Z,1.28
2019-01-20T00:46:19.035Z,1.3
2019-01-20T00:46:59.644Z,1.34
2019-01-20T00:47:40.417Z,1.23
2019-01-20T00:48:20.967Z,1.17
2019-01-20T00:49:01.567Z,1.16
2019-01-20T00:49:42.125Z,1.22
2019-01-20T00:50:22.690Z,1.17
2019-01-20T00:51:03.234Z,1.23
2019-01-20T00:51:43.802Z,1.28
2019-01-20T00:52:24.363Z,1.2
2019-01-20T00:53:04.982Z,1.2
2019-01-20T00:53:45.614Z,1.23
2019-01-20T00:54:26.216Z,1.24
2019-01-20T00:55:06.846Z,1.2
2019-01-20T00:55:47.413Z,1.17
2019-01-20T00:56:27.963Z,1.19
2019-01-20T00:57:08.532Z,1.16
2019-01-20T00:57:49.104Z,1.23
2019-01-20T00:58:29.677Z,1.19
2019-01-20T00:59:10.244Z,1.23
2019-01-20T00:59:50.807Z,1.22
2019-01-20T01:00:31.388Z,1.14
2019-01-20T01:01:11.948Z,1.2
2019-01-20T01:01:52.516Z,1.12
2019-01-20T01:02:33.086Z,1.13
2019-01-20T01:03:13.654Z,1.08
2019-01-20T01:03:54.238Z,1.13
2019-01-20T01:04:34.765Z,1.1
2019-01-20T01:05:15.332Z,1.2
2019-01-20T01:05:56.151Z,1.16
2019-01-20T01:06:36.710Z,1.13
2019-01-20T01:07:17.269Z,1.08
2019-01-20T01:07:57.818Z,1.19
2019-01-20T01:08:38.369Z,1.19
2019-01-20T01:09:18.909Z,1.16
2019-01-20T01:09:59.467Z,1.13
2019-01-20T01:10:40.040Z,1.1
2019-01-20T01:11:20.591Z,1.12
2019-01-20T01:12:01.222Z,1.17
2019-01-20T01:12:41.856Z,1.19
2019-01-20T01:13:22.396Z,1.08
2019-01-20T01:14:02.980Z,0.99
2019-01-20T01:14:43.532Z,1.12
2019-01-20T01:15:24.085Z,1.04
2019-01-20T01:16:04.634Z,1.06
2019-01-20T01:16:45.197Z,1.05
2019-01-20T01:17:25.839Z,1.04
2019-01-20T01:18:06.390Z,1.04
2019-01-20T01:18:46.968Z,1.04
2019-01-20T01:19:27.534Z,1.08
2019-01-20T01:20:08.088Z,1.1
2019-01-20T01:20:48.659Z,1.12
2019-01-20T01:21:29.249Z,1.13
2019-01-20T01:22:09.816Z,1.04
2019-01-20T01:22:50.388Z,1.1
2019-01-20T01:23:30.946Z,1.04
2019-01-20T01:24:11.520Z,1.05
2019-01-20T01:24:52.095Z,1.02
2019-01-20T01:25:32.651Z,1.02
2019-01-20T01:26:13.207Z,1.02
2019-01-20T01:26:53.767Z,0.95
2019-01-20T01:27:34.306Z,0.96
2019-01-20T01:28:14.860Z,1.02
2019-01-20T01:28:55.424Z,1.01
2019-01-20T01:29:35.974Z,1.01
2019-01-20T01:30:16.540Z,0.92
2019-01-20T01:30:57.091Z,0.95
2019-01-20T01:31:37.649Z,0.88
2019-01-20T01:32:18.189Z,0.87
2019-01-20T01:32:58.781Z,0.94
2019-01-20T01:33:39.332Z,0.91
2019-01-20T01:34:19.940Z,0.91
2019-01-20T01:35:00.496Z,0.94
2019-01-20T01:35:41.052Z,0.96
2019-01-20T01:36:21.635Z,0.94
2019-01-20T01:37:02.186Z,0.91
2019-01-20T01:37:42.793Z,0.96
2019-01-20T01:38:23.349Z,0.96
2019-01-20T01:39:03.917Z,0.96
2019-01-20T01:39:44.508Z,0.95
2019-01-20T01:40:25.061Z,0.94
2019-01-20T01:41:05.602Z,0.96
2019-01-20T01:41:46.196Z,0.99
2019-01-20T01:42:26.928Z,1.01
2019-01-20T01:43:07.500Z,0.96
2019-01-20T01:43:48.074Z,0.99
2019-01-20T01:44:28.612Z,0.91
2019-01-20T01:45:09.161Z,0.88
2019-01-20T01:45:49.752Z,0.87
2019-01-20T01:46:30.325Z,0.94
2019-01-20T01:47:10.879Z,0.78
2019-01-20T01:47:51.430Z,0.88
2019-01-20T01:48:31.994Z,0.86
2019-01-20T01:49:12.555Z,0.86
2019-01-20T01:49:53.119Z,0.84
2019-01-20T01:50:33.671Z,0.88
2019-01-20T01:51:14.219Z,0.83
2019-01-20T01:51:54.767Z,0.78
2019-01-20T01:52:35.383Z,0.88
2019-01-20T01:53:15.936Z,0.86
2019-01-20T01:53:56.510Z,0.77
2019-01-20T01:54:37.070Z,0.84
2019-01-20T01:55:17.619Z,0.78
2019-01-20T01:55:58.214Z,0.8
2019-01-20T01:56:38.769Z,0.81
2019-01-20T01:57:19.325Z,0.78
2019-01-20T01:57:59.891Z,0.81
2019-01-20T01:58:40.446Z,0.76
2019-01-20T01:59:21.020Z,0.77
2019-01-20T02:00:01.575Z,0.78
2019-01-20T02:00:42.143Z,0.78
2019-01-20T02:01:22.692Z,0.77
2019-01-20T02:02:03.250Z,0.77
2019-01-20T02:02:43.836Z,0.76
2019-01-20T02:03:24.385Z,0.74
2019-01-20T02:04:04.933Z,0.77
2019-01-20T02:04:45.505Z,0.66
2019-01-20T02:05:26.076Z,0.73
2019-01-20T02:06:06.977Z,0.65
2019-01-20T02:06:47.540Z,0.66
2019-01-20T02:07:28.101Z,0.65
2019-01-20T02:08:08.658Z,0.74
2019-01-20T02:08:49.208Z,0.74
2019-01-20T02:09:29.760Z,0.7
2019-01-20T02:10:10.320Z,0.74
2019-01-20T02:10:50.906Z,0.66
2019-01-20T02:11:31.471Z,0.73
2019-01-20T02:12:12.061Z,0.76
2019-01-20T02:12:52.614Z,0.76
2019-01-20T02:13:33.198Z,0.74
2019-01-20T02:14:13.756Z,0.74
2019-01-20T02:14:54.327Z,0.78
2019-01-20T02:15:34.879Z,0.8
2019-01-20T02:16:15.440Z,0.73
2019-01-20T02:16:56.001Z,0.78
2019-01-20T02:17:36.579Z,0.8
2019-01-20T02:18:17.124Z,0.73
2019-01-20T02:18:57.705Z,0.77
2019-01-20T02:19:38.265Z,0.8
2019-01-20T02:20:18.818Z,0.78
2019-01-20T02:20:59.374Z,0.76
2019-01-20T02:21:39.956Z,0.8
2019-01-20T02:22:20.544Z,0.78
2019-01-20T02:23:01.094Z,0.74
2019-01-20T02:23:41.654Z,0.7
2019-01-20T02:24:22.230Z,0.78
2019-01-20T02:25:02.782Z,0.78
2019-01-20T02:25:43.364Z,0.77
2019-01-20T02:26:23.940Z,0.74
2019-01-20T02:27:04.492Z,0.76
2019-01-20T02:27:45.035Z,0.69
2019-01-20T02:28:25.628Z,0.76
2019-01-20T02:29:06.193Z,0.62
2019-01-20T02:29:46.761Z,0.7
2019-01-20T02:30:27.306Z,0.65
2019-01-20T02:31:07.874Z,0.68
2019-01-20T02:31:48.432Z,0.7
2019-01-20T02:32:28.981Z,0.69
2019-01-20T02:33:09.537Z,0.7
2019-01-20T02:33:50.064Z,0.68
2019-01-20T02:34:30.621Z,0.63
2019-01-20T02:35:11.225Z,0.62
2019-01-20T02:35:51.806Z,0.52
2019-01-20T02:36:32.363Z,0.59
2019-01-20T02:37:12.912Z,0.55
2019-01-20T02:37:53.518Z,0.52
2019-01-20T02:38:34.074Z,0.55
2019-01-20T02:39:14.627Z,0.55
2019-01-20T02:39:55.180Z,0.43
2019-01-20T02:40:35.736Z,0.41
2019-01-20T02:41:16.294Z,0.46
2019-01-20T02:41:56.869Z,0.32
2019-01-20T02:42:37.430Z,0.44
2019-01-20T02:43:17.997Z,0.43
2019-01-20T02:43:58.562Z,0.47
2019-01-20T02:44:39.132Z,0.34
2019-01-20T02:45:19.677Z,0.43
2019-01-20T02:46:00.240Z,0.4
2019-01-20T02:46:40.819Z,0.39
2019-01-20T02:47:21.374Z,0.37
2019-01-20T02:48:01.935Z,0.43
2019-01-20T02:48:42.514Z,0.41
2019-01-20T02:49:23.058Z,0.46
2019-01-20T02:50:03.624Z,0.39
2019-01-20T02:50:44.186Z,0.34
2019-01-20T02:51:24.731Z,0.41
2019-01-20T02:52:05.337Z,0.44
2019-01-20T02:52:45.893Z,0.46
2019-01-20T02:53:26.457Z,0.44
2019-01-20T02:54:07.013Z,0.4
2019-01-20T02:54:47.570Z,0.41
2019-01-20T02:55:28.143Z,0.55
2019-01-20T02:56:08.686Z,0.37
2019-01-20T02:56:49.242Z,0.36
2019-01-20T02:57:29.824Z,0.47
2019-01-20T02:58:10.402Z,0.4
2019-01-20T02:58:50.961Z,0.41
2019-01-20T02:59:31.520Z,0.43
2019-01-20T03:00:12.071Z,0.37
2019-01-20T03:00:52.620Z,0.46
2019-01-20T03:01:33.152Z,0.5
2019-01-20T03:02:13.720Z,0.56
2019-01-20T03:02:54.264Z,0.44
2019-01-20T03:03:34.831Z,0.55
2019-01-20T03:04:15.373Z,0.47
2019-01-20T03:04:55.920Z,0.59
2019-01-20T03:05:36.477Z,0.55
2019-01-20T03:06:17.035Z,0.46
2019-01-20T03:06:57.587Z,0.47
2019-01-20T03:07:38.142Z,0.58
2019-01-20T03:08:18.717Z,0.44
2019-01-20T03:08:59.275Z,0.56
2019-01-20T03:09:39.842Z,0.56
2019-01-20T03:10:20.401Z,0.47
2019-01-20T03:11:00.954Z,0.5
2019-01-20T03:11:41.508Z,0.58
2019-01-20T03:12:22.076Z,0.47
2019-01-20T03:13:02.620Z,0.5
2019-01-20T03:13:43.175Z,0.46
2019-01-20T03:14:23.708Z,0.41
2019-01-20T03:15:04.274Z,0.34
2019-01-20T03:15:44.827Z,0.46
2019-01-20T03:16:25.371Z,0.49
2019-01-20T03:17:05.920Z,0.37
2019-01-20T03:17:46.489Z,0.4
2019-01-20T03:18:27.030Z,0.36
2019-01-20T03:19:07.574Z,0.39
2019-01-20T03:19:48.132Z,0.41
2019-01-20T03:20:28.690Z,0.37
2019-01-20T03:21:09.244Z,0.4
2019-01-20T03:21:49.804Z,0.47
2019-01-20T03:22:30.350Z,0.4
2019-01-20T03:23:10.897Z,0.39
2019-01-20T03:23:51.456Z,0.37
2019-01-20T03:24:32.004Z,0.41
2019-01-20T03:25:12.558Z,0.4
2019-01-20T03:25:53.113Z,0.43
2019-01-20T03:26:33.663Z,0.47
2019-01-20T03:27:14.204Z,0.4
2019-01-20T03:27:54.763Z,0.47
2019-01-20T03:28:35.304Z,0.44
2019-01-20T03:29:15.883Z,0.4
2019-01-20T03:29:56.471Z,0.4
2019-01-20T03:30:37.082Z,0.36
2019-01-20T03:31:17.761Z,0.44
2019-01-20T03:31:58.249Z,0.44
2019-01-20T03:32:38.812Z,0.43
2019-01-20T03:33:19.380Z,0.37
2019-01-20T03:33:59.969Z,0.41
2019-01-20T03:34:40.529Z,0.46
2019-01-20T03:35:21.091Z,0.44
2019-01-20T03:36:01.646Z,0.39
2019-01-20T03:36:42.245Z,0.31
2019-01-20T03:37:22.801Z,0.4
2019-01-20T03:38:03.382Z,0.31
2019-01-20T03:38:43.987Z,0.29
2019-01-20T03:39:24.545Z,0.29
2019-01-20T03:40:05.124Z,0.34
2019-01-20T03:40:45.682Z,0.31
2019-01-20T03:41:26.257Z,0.37
2019-01-20T03:42:11.695Z,0.37
2019-01-20T03:42:47.412Z,0.32
2019-01-20T03:43:27.927Z,0.41
2019-01-20T03:44:08.495Z,0.34
2019-01-20T03:44:49.091Z,0.41
2019-01-20T03:45:29.616Z,0.31
2019-01-20T03:46:10.169Z,0.37
2019-01-20T03:46:50.746Z,0.32
2019-01-20T03:47:31.286Z,0.31
2019-01-20T03:48:11.907Z,0.31
2019-01-20T03:48:52.454Z,0.34
2019-01-20T03:49:33.025Z,0.29
2019-01-20T03:50:13.661Z,0.31
2019-01-20T03:50:54.197Z,0.29
2019-01-20T03:51:34.744Z,0.29
2019-01-20T03:52:15.302Z,0.32
2019-01-20T03:52:55.854Z,0.26
2019-01-20T03:53:36.396Z,0.23
2019-01-20T03:54:16.961Z,0.25
2019-01-20T03:54:57.518Z,0.23
2019-01-20T03:55:38.083Z,0.25
2019-01-20T03:56:18.652Z,0.19
2019-01-20T03:56:59.195Z,0.23
2019-01-20T03:57:39.767Z,0.26
2019-01-20T03:58:20.360Z,0.21
2019-01-20T03:59:00.922Z,0.23
2019-01-20T03:59:41.467Z,0.25
2019-01-20T04:00:22.067Z,0.23
2019-01-20T04:01:02.616Z,0.29
2019-01-20T04:01:43.170Z,0.23
2019-01-20T04:02:23.734Z,0.22
2019-01-20T04:03:04.364Z,0.21
2019-01-20T04:03:44.931Z,0.23
2019-01-20T04:04:25.487Z,0.21
2019-01-20T04:05:06.049Z,0.18
2019-01-20T04:05:46.897Z,0.15
2019-01-20T04:06:27.445Z,0.25
2019-01-20T04:07:08.016Z,0.19
2019-01-20T04:07:48.577Z,0.16
2019-01-20T04:08:29.128Z,0.22
2019-01-20T04:09:09.685Z,0.12
2019-01-20T04:09:50.296Z,0.16
2019-01-20T04:10:30.798Z,0.08
2019-01-20T04:11:11.366Z,0.07
2019-01-20T04:11:51.934Z,0.1
2019-01-20T04:12:32.507Z,0.05
2019-01-20T04:13:13.058Z,0.04
2019-01-20T04:13:53.637Z,0.03
2019-01-20T04:14:34.182Z,0.04
2019-01-20T04:15:14.738Z,-0.03
2019-01-20T04:15:55.283Z,-0.07
2019-01-20T04:16:35.846Z,-0.1
2019-01-20T04:17:16.452Z,-0.1
2019-01-20T04:17:57.020Z,-0.15
2019-01-20T04:18:37.562Z,-0.2
2019-01-20T04:19:18.119Z,-0.14
2019-01-20T04:19:58.673Z,-0.18
2019-01-20T04:20:39.244Z,-0.18
2019-01-20T04:21:19.822Z,-0.23
2019-01-20T04:22:00.343Z,-0.25
2019-01-20T04:22:40.920Z,-0.31
2019-01-20T04:23:21.464Z,-0.31
2019-01-20T04:24:02.034Z,-0.34
2019-01-20T04:24:42.584Z,-0.21
2019-01-20T04:25:23.135Z,-0.25
2019-01-20T04:26:03.707Z,-0.28
2019-01-20T04:26:44.264Z,-0.25
2019-01-20T04:27:24.865Z,-0.23
2019-01-20T04:28:05.424Z,-0.17
2019-01-20T04:28:45.982Z,-0.13
2019-01-20T04:29:26.545Z,-0.1
2019-01-20T04:30:07.089Z,-0.15
2019-01-20T04:30:47.667Z,-0.15
2019-01-20T04:31:28.225Z,-0.13
2019-01-20T04:32:08.785Z,-0.17
2019-01-20T04:32:49.341Z,-0.06
2019-01-20T04:33:29.899Z,-0.06
2019-01-20T04:34:10.451Z,-0.13
2019-01-20T04:34:51.007Z,0
2019-01-20T04:35:31.560Z,-0.14
2019-01-20T04:36:12.120Z,-0.02
2019-01-20T04:36:52.669Z,-0.03
2019-01-20T04:37:33.235Z,-0.11
2019-01-20T04:38:13.814Z,-0.08
2019-01-20T04:38:54.358Z,0
2019-01-20T04:39:35.115Z,-0.06
2019-01-20T04:40:15.714Z,-0.07
2019-01-20T04:40:56.266Z,-0.02
2019-01-20T04:41:36.811Z,-0.13
2019-01-20T04:42:17.408Z,-0.07
2019-01-20T04:42:57.966Z,-0.15
2019-01-20T04:43:38.529Z,-0.07
2019-01-20T04:44:19.079Z,-0.02
2019-01-20T04:44:59.651Z,-0.15
2019-01-20T04:45:40.276Z,0
2019-01-20T04:46:20.841Z,-0.1
2019-01-20T04:47:01.454Z,-0.13
2019-01-20T04:47:42.025Z,-0.2
2019-01-20T04:48:22.571Z,-0.17
2019-01-20T04:49:03.125Z,-0.13
2019-01-20T04:49:43.692Z,-0.15
2019-01-20T04:50:24.267Z,-0.11
2019-01-20T04:51:04.805Z,-0.15
2019-01-20T04:51:45.353Z,-0.08
2019-01-20T04:52:25.909Z,-0.14
2019-01-20T04:53:06.431Z,-0.13
2019-01-20T04:53:46.989Z,-0.13
2019-01-20T04:54:27.538Z,-0.13
2019-01-20T04:55:08.109Z,-0.18
2019-01-20T04:55:48.662Z,-0.15
2019-01-20T04:56:29.272Z,-0.18
2019-01-20T04:57:09.829Z,-0.17
2019-01-20T04:57:50.380Z,-0.14
2019-01-20T04:58:30.958Z,-0.11
2019-01-20T04:59:11.506Z,-0.08
2019-01-20T04:59:52.066Z,-0.11
2019-01-20T05:00:32.611Z,-0.14
2019-01-20T05:01:13.175Z,-0.13
2019-01-20T05:01:53.730Z,-0.18
2019-01-20T05:02:34.436Z,-0.14
2019-01-20T05:03:14.983Z,-0.23
2019-01-20T05:03:55.538Z,-0.15
2019-01-20T05:04:36.099Z,-0.21
2019-01-20T05:05:16.660Z,-0.15
2019-01-20T05:05:57.213Z,-0.21
2019-01-20T05:06:37.959Z,-0.18
2019-01-20T05:07:18.525Z,-0.17
2019-01-20T05:07:59.089Z,-0.1
2019-01-20T05:08:39.653Z,-0.13
2019-01-20T05:09:20.231Z,-0.21
2019-01-20T05:10:00.763Z,-0.26
2019-01-20T05:10:41.336Z,-0.13
2019-01-20T05:11:21.896Z,-0.13
2019-01-20T05:12:02.437Z,-0.2
2019-01-20T05:12:42.988Z,-0.17
2019-01-20T05:13:23.539Z,-0.15
2019-01-20T05:14:04.158Z,-0.15
2019-01-20T05:14:44.703Z,-0.15
2019-01-20T05:15:25.325Z,-0.13
2019-01-20T05:16:05.871Z,-0.07
2019-01-20T05:16:46.428Z,-0.15
2019-01-20T05:17:26.984Z,-0.14
2019-01-20T05:18:07.542Z,-0.03
2019-01-20T05:18:48.105Z,-0.08
2019-01-20T05:19:28.671Z,-0.15
2019-01-20T05:20:09.265Z,-0.14
2019-01-20T05:20:49.840Z,0.01
2019-01-20T05:21:30.441Z,-0.07
2019-01-20T05:22:10.972Z,-0.15
2019-01-20T05:22:51.525Z,-0.2
2019-01-20T05:23:32.081Z,-0.13
2019-01-20T05:24:12.647Z,-0.07
2019-01-20T05:24:53.262Z,-0.14
2019-01-20T05:25:33.805Z,-0.26
2019-01-20T05:26:14.362Z,-0.2
2019-01-20T05:26:54.943Z,-0.13
2019-01-20T05:27:35.519Z,-0.2
2019-01-20T05:28:16.061Z,-0.11
2019-01-20T05:28:56.625Z,-0.11
2019-01-20T05:29:37.176Z,-0.13
2019-01-20T05:30:17.736Z,-0.11
2019-01-20T05:30:58.283Z,-0.28
2019-01-20T05:31:38.881Z,-0.2
2019-01-20T05:32:19.541Z,-0.18
2019-01-20T05:33:00.000Z,-0.17
2019-01-20T05:33:40.571Z,-0.11
2019-01-20T05:34:21.152Z,-0.11
2019-01-20T05:35:01.694Z,-0.11
2019-01-20T05:35:42.255Z,-0.2
2019-01-20T05:36:22.819Z,-0.1
2019-01-20T05:37:03.405Z,-0.15
2019-01-20T05:37:43.949Z,-0.23
2019-01-20T05:38:24.550Z,-0.23
2019-01-20T05:39:05.091Z,-0.08
2019-01-20T05:39:45.641Z,-0.17
2019-01-20T05:40:26.213Z,-0.17
2019-01-20T05:41:06.779Z,-0.21
2019-01-20T05:41:47.435Z,-0.11
2019-01-20T05:42:27.962Z,-0.17
2019-01-20T05:43:08.526Z,-0.14
2019-01-20T05:43:49.086Z,-0.17
2019-01-20T05:44:29.638Z,-0.14
2019-01-20T05:45:10.192Z,-0.15
2019-01-20T05:45:50.741Z,-0.2
2019-01-20T05:46:31.373Z,-0.23
2019-01-20T05:47:11.929Z,-0.23
2019-01-20T05:47:52.502Z,-0.31
2019-01-20T05:48:33.067Z,-0.28
2019-01-20T05:49:13.604Z,-0.34
2019-01-20T05:49:54.167Z,-0.23
2019-01-20T05:50:34.718Z,-0.2
2019-01-20T05:51:15.325Z,-0.28
2019-01-20T05:51:55.884Z,-0.31
2019-01-20T05:52:36.447Z,-0.32
2019-01-20T05:53:16.993Z,-0.31
2019-01-20T05:53:57.570Z,-0.31
2019-01-20T05:54:38.125Z,-0.2
2019-01-20T05:55:18.693Z,-0.25
2019-01-20T05:55:59.272Z,-0.2
2019-01-20T05:56:39.830Z,-0.18
2019-01-20T05:57:20.389Z,-0.23
2019-01-20T05:58:00.979Z,-0.34
2019-01-20T05:58:41.522Z,-0.25
2019-01-20T05:59:22.070Z,-0.2
2019-01-20T06:00:02.640Z,-0.34
2019-01-20T06:00:43.196Z,-0.31
2019-01-20T06:01:23.846Z,-0.18
2019-01-20T06:02:04.404Z,-0.32
2019-01-20T06:02:44.954Z,-0.34
2019-01-20T06:03:25.527Z,-0.29
2019-01-20T06:04:06.081Z,-0.34
2019-01-20T06:04:46.639Z,-0.34
2019-01-20T06:05:27.199Z,-0.35
2019-01-20T06:06:07.759Z,-0.34
2019-01-20T06:06:48.328Z,-0.23
2019-01-20T06:07:28.877Z,-0.29
2019-01-20T06:08:09.412Z,-0.29
2019-01-20T06:08:50.011Z,-0.28
2019-01-20T06:09:30.575Z,-0.28
2019-01-20T06:10:11.236Z,-0.31
2019-01-20T06:10:51.784Z,-0.35
2019-01-20T06:11:32.342Z,-0.34
2019-01-20T06:12:12.927Z,-0.28
2019-01-20T06:12:54.380Z,-0.26
2019-01-20T06:13:34.041Z,-0.34
2019-01-20T06:14:14.589Z,-0.28
2019-01-20T06:14:55.142Z,-0.38
2019-01-20T06:15:35.715Z,-0.36
2019-01-20T06:16:16.306Z,-0.34
2019-01-20T06:16:56.863Z,-0.31
2019-01-20T06:17:37.481Z,-0.26
2019-01-20T06:18:18.036Z,-0.28
2019-01-20T06:18:58.613Z,-0.32
2019-01-20T06:19:39.201Z,-0.32
2019-01-20T06:20:19.762Z,-0.34
2019-01-20T06:21:00.298Z,-0.29
2019-01-20T06:21:41.050Z,-0.34
2019-01-20T06:22:21.605Z,-0.31
2019-01-20T06:23:02.203Z,-0.34
2019-01-20T06:23:42.751Z,-0.38
2019-01-20T06:24:23.308Z,-0.32
2019-01-20T06:25:03.874Z,-0.34
2019-01-20T06:25:44.457Z,-0.31
2019-01-20T06:26:25.003Z,-0.34
2019-01-20T06:27:05.545Z,-0.34
2019-01-20T06:27:46.115Z,-0.36
2019-01-20T06:28:26.678Z,-0.31
2019-01-20T06:29:07.252Z,-0.31
2019-01-20T06:29:47.830Z,-0.28
2019-01-20T06:30:28.428Z,-0.38
2019-01-20T06:31:08.984Z,-0.26
2019-01-20T06:31:49.539Z,-0.29
2019-01-20T06:32:30.136Z,-0.28
2019-01-20T06:33:10.717Z,-0.36
2019-01-20T06:33:51.295Z,-0.28
2019-01-20T06:34:31.836Z,-0.31
2019-01-20T06:35:12.407Z,-0.28
2019-01-20T06:35:52.974Z,-0.29
2019-01-20T06:36:33.536Z,-0.32
2019-01-20T06:37:14.106Z,-0.32
2019-01-20T06:37:54.692Z,-0.32
2019-01-20T06:38:35.242Z,-0.41
2019-01-20T06:39:15.801Z,-0.34
2019-01-20T06:39:56.383Z,-0.34
2019-01-20T06:40:36.961Z,-0.46
2019-01-20T06:41:17.525Z,-0.39
2019-01-20T06:41:58.084Z,-0.36
2019-01-20T06:42:38.635Z,-0.46
2019-01-20T06:43:19.191Z,-0.39
2019-01-20T06:43:59.750Z,-0.34
2019-01-20T06:44:40.319Z,-0.32
2019-01-20T06:45:20.900Z,-0.34
2019-01-20T06:46:01.451Z,-0.28
2019-01-20T06:46:42.013Z,-0.36
2019-01-20T06:47:22.571Z,-0.32
2019-01-20T06:48:03.135Z,-0.35
2019-01-20T06:48:43.681Z,-0.34
2019-01-20T06:49:24.227Z,-0.44
2019-01-20T06:50:04.780Z,-0.44
2019-01-20T06:50:45.351Z,-0.38
2019-01-20T06:51:25.904Z,-0.39
2019-01-20T06:52:06.455Z,-0.44
2019-01-20T06:52:47.010Z,-0.43
2019-01-20T06:53:27.558Z,-0.41
2019-01-20T06:54:08.118Z,-0.43
2019-01-20T06:54:48.658Z,-0.47
2019-01-20T06:55:29.207Z,-0.46
2019-01-20T06:56:09.752Z,-0.41
2019-01-20T06:56:50.311Z,-0.46
2019-01-20T06:57:30.863Z,-0.41
2019-01-20T06:58:11.430Z,-0.43
2019-01-20T06:58:51.991Z,-0.41
2019-01-20T06:59:32.576Z,-0.39
2019-01-20T07:00:13.142Z,-0.47
2019-01-20T07:00:53.696Z,-0.49
2019-01-20T07:01:34.247Z,-0.47
2019-01-20T07:02:14.825Z,-0.46
2019-01-20T07:02:55.427Z,-0.38
2019-01-20T07:03:36.009Z,-0.44
2019-01-20T07:04:16.567Z,-0.39
2019-01-20T07:04:57.114Z,-0.39
2019-01-20T07:05:37.713Z,-0.36
2019-01-20T07:06:18.500Z,-0.44
2019-01-20T07:06:59.060Z,-0.47
2019-01-20T07:07:39.639Z,-0.41
2019-01-20T07:08:20.196Z,-0.43
2019-01-20T07:09:00.766Z,-0.43
2019-01-20T07:09:41.325Z,-0.43
2019-01-20T07:10:21.889Z,-0.39
2019-01-20T07:11:02.419Z,-0.47
2019-01-20T07:11:42.976Z,-0.46
2019-01-20T07:12:23.555Z,-0.46
2019-01-20T07:13:08.994Z,-0.44
2019-01-20T07:13:44.688Z,-0.44
2019-01-20T07:14:25.244Z,-0.44
2019-01-20T07:15:05.788Z,-0.43
2019-01-20T07:15:46.346Z,-0.46
2019-01-20T07:16:26.888Z,-0.49
2019-01-20T07:17:07.437Z,-0.46
2019-01-20T07:17:47.984Z,-0.41
2019-01-20T07:18:28.562Z,-0.41
2019-01-20T07:19:09.130Z,-0.47
2019-01-20T07:19:49.694Z,-0.57
2019-01-20T07:20:30.253Z,-0.47
2019-01-20T07:21:10.816Z,-0.5
2019-01-20T07:21:51.382Z,-0.5
2019-01-20T07:22:31.937Z,-0.46
2019-01-20T07:23:12.498Z,-0.47
2019-01-20T07:23:53.055Z,-0.44
2019-01-20T07:24:33.603Z,-0.49
2019-01-20T07:25:14.153Z,-0.43
2019-01-20T07:25:54.712Z,-0.46
2019-01-20T07:26:35.256Z,-0.49
2019-01-20T07:27:15.858Z,-0.53
2019-01-20T07:27:56.409Z,-0.54
2019-01-20T07:28:36.991Z,-0.56
2019-01-20T07:29:17.557Z,-0.57
2019-01-20T07:29:58.119Z,-0.59
2019-01-20T07:30:38.673Z,-0.54
2019-01-20T07:31:19.230Z,-0.49
2019-01-20T07:31:59.786Z,-0.54
2019-01-20T07:32:40.333Z,-0.52
2019-01-20T07:33:20.910Z,-0.52
2019-01-20T07:34:01.521Z,-0.62
2019-01-20T07:34:42.065Z,-0.62
2019-01-20T07:35:22.677Z,-0.59
2019-01-20T07:36:03.473Z,-0.65
2019-01-20T07:36:44.305Z,-0.67
2019-01-20T07:37:24.871Z,-0.64
2019-01-20T07:38:05.475Z,-0.67
2019-01-20T07:38:46.277Z,-0.68
2019-01-20T07:39:26.822Z,-0.65
2019-01-20T07:40:07.377Z,-0.62
2019-01-20T07:40:47.945Z,-0.61
2019-01-20T07:41:28.493Z,-0.78
2019-01-20T07:42:09.478Z,-0.71
2019-01-20T07:42:49.618Z,-0.68
2019-01-20T07:43:30.230Z,-0.71
2019-01-20T07:44:10.845Z,-0.74
2019-01-20T07:44:51.855Z,-0.75
2019-01-20T07:45:32.738Z,-0.82
2019-01-20T07:46:13.284Z,-0.8
2019-01-20T07:46:53.846Z,-0.82
2019-01-20T07:47:34.486Z,-0.82
2019-01-20T07:48:15.069Z,-0.78
2019-01-20T07:48:55.772Z,-0.82
2019-01-20T07:49:36.336Z,-0.75
2019-01-20T07:50:16.907Z,-0.74
2019-01-20T07:50:57.464Z,-0.8
2019-01-20T07:51:38.033Z,-0.77
2019-01-20T07:52:18.586Z,-0.82
2019-01-20T07:52:59.199Z,-0.77
2019-01-20T07:53:39.764Z,-0.78
2019-01-20T07:54:20.488Z,-0.72
2019-01-20T07:55:01.036Z,-0.83
2019-01-20T07:55:42.043Z,-0.82
2019-01-20T07:56:22.600Z,-0.86
2019-01-20T07:57:03.202Z,-0.82
2019-01-20T07:57:44.666Z,-0.9
2019-01-20T07:58:25.226Z,-0.89
2019-01-20T07:59:05.793Z,-0.86
2019-01-20T07:59:46.380Z,-0.94
2019-01-20T08:00:27.912Z,-0.85
2019-01-20T08:01:08.743Z,-0.89
2019-01-20T08:01:49.316Z,-0.83
2019-01-20T08:02:29.938Z,-0.8
2019-01-20T08:03:11.595Z,-0.8
2019-01-20T08:03:52.155Z,-0.71
2019-01-20T08:04:32.695Z,-0.77
2019-01-20T08:05:13.272Z,-0.74
2019-01-20T08:05:53.854Z,-0.7
2019-01-20T08:06:34.410Z,-0.74
2019-01-20T08:07:14.973Z,-0.71
2019-01-20T08:07:55.609Z,-0.75
2019-01-20T08:08:36.191Z,-0.68
2019-01-20T08:09:17.011Z,-0.74
2019-01-20T08:09:57.556Z,-0.7
2019-01-20T08:10:38.138Z,-0.75
2019-01-20T08:11:19.658Z,-0.74
2019-01-20T08:12:00.335Z,-0.74
2019-01-20T08:12:41.087Z,-0.75
2019-01-20T08:13:24.312Z,-0.72
2019-01-20T08:14:04.142Z,-0.74
2019-01-20T08:14:44.688Z,-0.71
2019-01-20T08:15:25.266Z,-0.77
2019-01-20T08:16:05.819Z,-0.74
2019-01-20T08:16:47.295Z,-0.75
2019-01-20T08:17:27.869Z,-0.77
2019-01-20T08:18:08.508Z,-0.7
2019-01-20T08:18:49.063Z,-0.7
2019-01-20T08:19:29.698Z,-0.7
2019-01-20T08:20:10.234Z,-0.71
2019-01-20T08:20:51.079Z,-0.77
2019-01-20T08:21:31.593Z,-0.77
2019-01-20T08:22:12.166Z,-0.75
2019-01-20T08:22:53.199Z,-0.75
2019-01-20T08:23:33.739Z,-0.75
2019-01-20T08:24:14.313Z,-0.77
2019-01-20T08:24:54.978Z,-0.75
2019-01-20T08:25:35.653Z,-0.74
2019-01-20T08:26:16.193Z,-0.71
2019-01-20T08:26:56.745Z,-0.71
2019-01-20T08:27:37.308Z,-0.72
2019-01-20T08:28:17.857Z,-0.8
2019-01-20T08:28:58.394Z,-0.64
2019-01-20T08:29:38.968Z,-0.72
2019-01-20T08:30:19.598Z,-0.71
2019-01-20T08:31:00.162Z,-0.62
2019-01-20T08:31:40.754Z,-0.67
2019-01-20T08:32:21.294Z,-0.68
2019-01-20T08:33:01.923Z,-0.64
2019-01-20T08:33:42.625Z,-0.7
2019-01-20T08:34:23.217Z,-0.64
2019-01-20T08:35:03.788Z,-0.68
2019-01-20T08:35:44.414Z,-0.7
2019-01-20T08:36:26.367Z,-0.64
2019-01-20T08:37:05.817Z,-0.67
2019-01-20T08:37:46.369Z,-0.62
2019-01-20T08:38:27.083Z,-0.78
2019-01-20T08:39:07.655Z,-0.64
2019-01-20T08:39:48.400Z,-0.65
2019-01-20T08:40:29.099Z,-0.62
2019-01-20T08:41:09.663Z,-0.62
2019-01-20T08:41:50.217Z,-0.67
2019-01-20T08:42:30.785Z,-0.67
2019-01-20T08:43:11.368Z,-0.59
2019-01-20T08:43:51.966Z,-0.7
2019-01-20T08:44:32.510Z,-0.68
2019-01-20T08:45:13.152Z,-0.65
2019-01-20T08:45:53.726Z,-0.65
2019-01-20T08:46:34.324Z,-0.59
2019-01-20T08:47:15.196Z,-0.41
2019-01-20T08:47:55.753Z,-0.36
2019-01-20T08:48:36.353Z,-0.28
2019-01-20T08:49:17.253Z,-0.13
2019-01-20T08:49:57.898Z,0.07
2019-01-20T08:50:38.480Z,0.18
2019-01-20T08:51:19.056Z,0.23
2019-01-20T08:51:59.639Z,0.36
2019-01-20T08:52:40.205Z,0.37